Time;durP1;ratioP1;P1;durP2;ratioP2;P2;SDS_P1;SDS_P2;PMS_P1;PMS_P2;Temp;Humidity;BMP_temperature;BMP_pressure;BME280_temperature;BME280_humidity;BME280_pressure;Samples;Min_cycle;Max_cycle;Signal;HPM_P1;HPM_P2
2022/04/06 00:01:42;;;;;;;2.50;1.20;;;;;;;;;;6314665;22;19996;-81
2022/04/06 00:04:09;;;;;;;3.45;1.20;;;;;;;;;;6311718;22;20010;-81
2022/04/06 00:06:35;;;;;;;3.40;1.42;;;;;;;;;;6312351;22;19999;-80
2022/04/06 00:09:01;;;;;;;3.15;1.30;;;;;;;;;;6284387;22;20007;-81
2022/04/06 00:11:27;;;;;;;3.25;1.33;;;;;;;;;;6314473;22;20050;-81
2022/04/06 00:13:53;;;;;;;3.13;1.30;;;;;;;;;;6312762;22;19999;-80
2022/04/06 00:16:19;;;;;;;2.83;1.30;;;;;;;;;;6312996;22;19999;-81
2022/04/06 00:18:45;;;;;;;3.10;1.30;;;;;;;;;;6285862;22;20011;-81
2022/04/06 00:21:12;;;;;;;2.90;1.30;;;;;;;;;;6285849;22;20064;-81
2022/04/06 00:23:38;;;;;;;3.90;1.50;;;;;;;;;;6284586;22;20053;-81
2022/04/06 00:26:04;;;;;;;3.13;1.35;;;;;;;;;;6312559;22;20374;-81
2022/04/06 00:28:30;;;;;;;3.60;1.45;;;;;;;;;;6312618;22;20025;-82
2022/04/06 00:30:56;;;;;;;2.80;1.17;;;;;;;;;;6312362;22;19999;-80
2022/04/06 00:33:22;;;;;;;3.90;1.40;;;;;;;;;;6287104;22;20003;-81
2022/04/06 00:35:48;;;;;;;4.50;1.30;;;;;;;;;;6287354;22;20007;-81
2022/04/06 00:38:14;;;;;;;4.15;1.75;;;;;;;;;;6313967;22;20042;-81
2022/04/06 00:40:40;;;;;;;3.13;1.25;;;;;;;;;;6311576;22;20029;-82
2022/04/06 00:43:09;;;;;;;3.03;1.25;;;;;;;;;;6313902;22;20003;-80
2022/04/06 00:45:35;;;;;;;3.75;1.50;;;;;;;;;;6286286;22;20003;-81
2022/04/06 00:48:01;;;;;;;4.70;1.90;;;;;;;;;;6285918;22;20013;-81
2022/04/06 00:50:27;;;;;;;3.38;1.38;;;;;;;;;;6313105;22;20003;-82
2022/04/06 00:52:57;;;;;;;3.35;1.50;;;;;;;;;;6312071;22;20004;-81
2022/04/06 00:55:41;;;;;;;3.63;1.80;;;;;;;;;;6312563;22;20003;-80
2022/04/06 00:58:08;;;;;;;3.30;1.52;;;;;;;;;;6313716;22;20068;-82
2022/04/06 01:00:34;;;;;;;3.30;1.65;;;;;;;;;;6284513;22;20047;-81
2022/04/06 01:03:01;;;;;;;4.50;2.03;;;;;;;;;;6285454;22;20014;-82
2022/04/06 01:05:27;;;;;;;3.97;1.95;;;;;;;;;;6280608;22;20023;-81
2022/04/06 01:07:54;;;;;;;4.00;1.70;;;;;;;;;;6282047;22;20030;-82
2022/04/06 01:10:20;;;;;;;4.13;2.10;;;;;;;;;;6281624;22;20007;-81
2022/04/06 01:12:47;;;;;;;3.88;1.85;;;;;;;;;;6280097;22;20004;-81
2022/04/06 01:15:13;;;;;;;4.22;1.92;;;;;;;;;;6283367;22;20028;-81
2022/04/06 01:17:39;;;;;;;3.70;1.42;;;;;;;;;;6283399;22;20006;-80
2022/04/06 01:20:07;;;;;;;3.10;1.40;;;;;;;;;;6281890;22;20079;-82
2022/04/06 01:22:34;;;;;;;3.67;1.75;;;;;;;;;;6282292;22;20331;-82
2022/04/06 01:25:00;;;;;;;3.20;1.52;;;;;;;;;;6280605;22;19995;-80
2022/04/06 01:27:26;;;;;;;4.15;2.25;;;;;;;;;;6283302;22;20436;-81
2022/04/06 01:29:54;;;;;;;4.18;1.92;;;;;;;;;;6286318;22;20503;-81
2022/04/06 01:32:21;;;;;;;4.93;2.10;;;;;;;;;;6279926;22;20026;-81
2022/04/06 01:34:48;;;;;;;4.45;1.65;;;;;;;;;;6282312;22;20003;-81
2022/04/06 01:37:14;;;;;;;3.67;1.70;;;;;;;;;;6280782;22;20004;-81
2022/04/06 01:39:42;;;;;;;4.30;1.92;;;;;;;;;;6281601;22;20016;-81
2022/04/06 01:42:09;;;;;;;3.60;1.92;;;;;;;;;;6280587;22;20004;-81
2022/04/06 01:44:35;;;;;;;3.35;1.60;;;;;;;;;;6282978;22;19996;-81
2022/04/06 01:47:02;;;;;;;3.30;1.58;;;;;;;;;;6284382;22;20053;-82
2022/04/06 01:52:12;;;;;;;4.70;1.70;;;;;;;;;;6283064;22;20485;-81
2022/04/06 01:54:39;;;;;;;3.67;1.70;;;;;;;;;;6281731;22;20004;-81
2022/04/06 01:57:05;;;;;;;3.83;1.63;;;;;;;;;;6282048;22;20036;-81
2022/04/06 01:59:31;;;;;;;3.47;1.50;;;;;;;;;;6280017;22;20023;-81
2022/04/06 02:01:57;;;;;;;3.85;1.67;;;;;;;;;;6281336;22;20067;-82
2022/04/06 02:04:23;;;;;;;3.38;1.58;;;;;;;;;;6290366;22;20351;-82
2022/04/06 02:06:49;;;;;;;5.57;1.60;;;;;;;;;;6312242;22;20502;-81
2022/04/06 02:09:15;;;;;;;4.13;1.80;;;;;;;;;;6311609;22;19995;-82
2022/04/06 02:11:42;;;;;;;3.33;1.52;;;;;;;;;;6311133;22;19999;-82
2022/04/06 02:14:08;;;;;;;3.40;1.55;;;;;;;;;;6310115;22;19996;-82
2022/04/06 02:16:37;;;;;;;4.60;2.00;;;;;;;;;;6310056;22;20402;-81
2022/04/06 02:19:05;;;;;;;3.33;1.50;;;;;;;;;;6282984;22;19999;-83
2022/04/06 02:21:31;;;;;;;3.63;1.73;;;;;;;;;;6283909;22;20007;-82
2022/04/06 02:23:58;;;;;;;2.85;1.35;;;;;;;;;;6283932;22;20006;-84
2022/04/06 02:26:25;;;;;;;3.78;1.80;;;;;;;;;;6311226;22;20006;-82
2022/04/06 02:28:51;;;;;;;3.97;1.80;;;;;;;;;;6283445;22;20069;-83
2022/04/06 02:31:17;;;;;;;4.03;1.48;;;;;;;;;;6310873;22;20007;-82
2022/04/06 02:33:43;;;;;;;4.15;1.75;;;;;;;;;;6310946;22;20048;-83
2022/04/06 02:36:09;;;;;;;3.28;1.65;;;;;;;;;;6311593;22;20002;-82
2022/04/06 02:38:38;;;;;;;4.22;1.92;;;;;;;;;;6285875;22;20037;-81
2022/04/06 02:41:06;;;;;;;3.70;1.70;;;;;;;;;;6316130;22;20000;-81
2022/04/06 02:43:32;;;;;;;3.38;1.60;;;;;;;;;;6314216;22;20000;-82
2022/04/06 02:45:58;;;;;;;3.28;1.50;;;;;;;;;;6315647;22;20042;-82
2022/04/06 02:48:24;;;;;;;4.00;1.80;;;;;;;;;;6299518;22;20034;-80
2022/04/06 02:50:50;;;;;;;5.18;1.52;;;;;;;;;;6325898;22;20074;-80
2022/04/06 02:53:16;;;;;;;3.75;1.58;;;;;;;;;;6320410;22;20011;-80
2022/04/06 02:55:42;;;;;;;3.85;1.48;;;;;;;;;;6285683;22;20011;-81
2022/04/06 02:58:08;;;;;;;2.75;1.40;;;;;;;;;;6313943;22;20000;-81
2022/04/06 03:00:35;;;;;;;3.80;1.40;;;;;;;;;;6313802;22;20011;-81
2022/04/06 03:03:01;;;;;;;3.13;1.20;;;;;;;;;;6285891;22;20010;-82
2022/04/06 03:05:27;;;;;;;2.88;1.20;;;;;;;;;;6313325;22;20007;-81
2022/04/06 03:07:53;;;;;;;3.92;1.30;;;;;;;;;;6285368;22;20003;-81
2022/04/06 03:10:19;;;;;;;2.75;1.10;;;;;;;;;;6315603;22;19999;-82
2022/04/06 03:12:46;;;;;;;3.38;1.20;;;;;;;;;;6313988;22;19999;-82
2022/04/06 03:15:12;;;;;;;2.30;1.00;;;;;;;;;;6313421;22;20011;-81
2022/04/06 03:17:38;;;;;;;2.72;1.10;;;;;;;;;;6313401;22;20007;-81
2022/04/06 03:20:04;;;;;;;3.65;1.50;;;;;;;;;;6313494;22;20053;-81
2022/04/06 03:22:30;;;;;;;3.17;1.35;;;;;;;;;;6314528;22;20003;-81
2022/04/06 03:24:56;;;;;;;3.10;1.30;;;;;;;;;;6313652;22;20461;-82
2022/04/06 03:27:22;;;;;;;3.38;1.65;;;;;;;;;;6286738;22;20003;-82
2022/04/06 03:29:48;;;;;;;3.58;1.48;;;;;;;;;;6286815;22;20003;-82
2022/04/06 03:32:14;;;;;;;4.50;1.20;;;;;;;;;;6313303;22;20009;-82
2022/04/06 03:34:40;;;;;;;3.67;1.48;;;;;;;;;;6285680;22;20006;-81
2022/04/06 03:37:06;;;;;;;3.22;1.50;;;;;;;;;;6313946;22;20003;-81
2022/04/06 03:39:33;;;;;;;3.92;1.90;;;;;;;;;;6285169;22;20060;-81
2022/04/06 03:41:59;;;;;;;4.30;1.98;;;;;;;;;;6312709;22;20343;-82
2022/04/06 03:44:25;;;;;;;5.82;2.50;;;;;;;;;;6313576;22;20003;-82
2022/04/06 03:46:51;;;;;;;5.03;2.55;;;;;;;;;;6285859;22;20634;-81
2022/04/06 03:49:17;;;;;;;5.55;2.80;;;;;;;;;;6285304;22;20045;-81
2022/04/06 03:51:43;;;;;;;4.90;2.97;;;;;;;;;;6312179;22;20465;-82
2022/04/06 03:54:09;;;;;;;5.50;2.72;;;;;;;;;;6285063;22;20003;-83
2022/04/06 03:56:37;;;;;;;6.32;3.38;;;;;;;;;;6313637;22;19995;-81
2022/04/06 03:59:04;;;;;;;6.97;3.40;;;;;;;;;;6313232;22;19996;-82
2022/04/06 04:01:30;;;;;;;5.22;2.92;;;;;;;;;;6313446;22;20086;-81
2022/04/06 04:03:56;;;;;;;5.15;2.90;;;;;;;;;;6313558;22;20006;-80
2022/04/06 04:06:22;;;;;;;5.55;2.90;;;;;;;;;;6286631;22;20025;-82
2022/04/06 04:08:48;;;;;;;5.38;2.95;;;;;;;;;;6312859;22;19995;-81
2022/04/06 04:11:16;;;;;;;4.90;2.83;;;;;;;;;;6313344;22;20031;-81
2022/04/06 04:13:42;;;;;;;5.55;3.10;;;;;;;;;;6313676;22;20000;-81
2022/04/06 04:16:08;;;;;;;4.85;2.95;;;;;;;;;;6284932;22;20010;-81
2022/04/06 04:18:34;;;;;;;4.45;2.58;;;;;;;;;;6314066;22;20003;-82
2022/04/06 04:23:45;;;;;;;4.90;2.60;;;;;;;;;;6313919;22;20014;-84
2022/04/06 04:26:11;;;;;;;4.50;2.33;;;;;;;;;;6286297;22;20000;-80
2022/04/06 04:28:37;;;;;;;4.32;2.63;;;;;;;;;;6314238;22;20010;-82
2022/04/06 04:31:03;;;;;;;5.65;2.90;;;;;;;;;;6315103;22;20006;-81
2022/04/06 04:33:29;;;;;;;4.80;2.22;;;;;;;;;;6310363;22;20006;-83
2022/04/06 04:35:55;;;;;;;8.48;3.70;;;;;;;;;;6311016;22;20357;-85
2022/04/06 04:38:21;;;;;;;6.03;2.58;;;;;;;;;;6283348;22;20011;-82
2022/04/06 04:40:47;;;;;;;4.90;2.70;;;;;;;;;;6310494;22;20431;-83
2022/04/06 04:43:13;;;;;;;5.30;3.05;;;;;;;;;;6283898;22;20483;-82
2022/04/06 04:45:39;;;;;;;5.43;2.55;;;;;;;;;;6310604;22;19996;-82
2022/04/06 04:48:05;;;;;;;5.60;3.10;;;;;;;;;;6283822;22;20003;-83
2022/04/06 04:50:31;;;;;;;6.78;3.30;;;;;;;;;;6283067;22;20035;-82
2022/04/06 04:52:57;;;;;;;5.88;3.00;;;;;;;;;;6282409;22;20014;-82
2022/04/06 04:55:23;;;;;;;4.78;2.67;;;;;;;;;;6283567;22;20011;-82
2022/04/06 04:57:49;;;;;;;7.40;4.35;;;;;;;;;;6311238;22;20375;-83
2022/04/06 05:00:16;;;;;;;6.35;2.97;;;;;;;;;;6310363;22;20049;-82
2022/04/06 05:02:42;;;;;;;5.60;3.30;;;;;;;;;;6311079;22;20070;-83
2022/04/06 05:05:08;;;;;;;9.27;3.85;;;;;;;;;;6284124;22;20011;-83
2022/04/06 05:07:37;;;;;;;5.63;2.90;;;;;;;;;;6311276;22;20003;-83
2022/04/06 05:10:05;;;;;;;8.50;3.63;;;;;;;;;;6311194;22;20030;-83
2022/04/06 05:12:31;;;;;;;6.18;2.75;;;;;;;;;;6311592;22;19999;-82
2022/04/06 05:14:59;;;;;;;6.82;3.35;;;;;;;;;;6311515;22;20002;-83
2022/04/06 05:17:25;;;;;;;6.10;3.03;;;;;;;;;;6311603;22;19999;-83
2022/04/06 05:19:53;;;;;;;4.50;2.58;;;;;;;;;;6311360;22;20007;-82
2022/04/06 05:22:19;;;;;;;6.05;2.80;;;;;;;;;;6284708;22;19999;-83
2022/04/06 05:24:45;;;;;;;4.88;2.45;;;;;;;;;;6331955;22;20011;-80
2022/04/06 05:27:11;;;;;;;5.95;2.80;;;;;;;;;;6307125;22;20033;-81
2022/04/06 05:29:37;;;;;;;5.13;2.78;;;;;;;;;;6306542;22;19996;-80
2022/04/06 05:32:03;;;;;;;6.60;3.00;;;;;;;;;;6332609;22;19983;-81
2022/04/06 05:34:29;;;;;;;7.30;2.90;;;;;;;;;;6333240;22;19992;-80
2022/04/06 05:36:55;;;;;;;5.55;2.50;;;;;;;;;;6319171;22;20006;-83
2022/04/06 05:39:22;;;;;;;8.27;3.67;;;;;;;;;;6312569;22;20014;-86
2022/04/06 05:41:49;;;;;;;7.35;2.85;;;;;;;;;;6312133;22;20515;-83
2022/04/06 05:44:16;;;;;;;5.97;2.58;;;;;;;;;;6284139;22;20029;-83
2022/04/06 05:46:42;;;;;;;5.22;2.30;;;;;;;;;;6284447;22;20007;-83
2022/04/06 05:49:08;;;;;;;4.97;2.30;;;;;;;;;;6285550;22;20007;-83
2022/04/06 05:51:34;;;;;;;6.60;2.40;;;;;;;;;;6312263;22;20033;-83
2022/04/06 05:54:01;;;;;;;5.32;2.92;;;;;;;;;;6284666;22;20063;-82
2022/04/06 05:56:27;;;;;;;4.80;2.63;;;;;;;;;;6312165;22;19999;-84
2022/04/06 05:58:53;;;;;;;5.13;2.75;;;;;;;;;;6316454;22;20000;-83
2022/04/06 06:01:19;;;;;;;4.60;2.53;;;;;;;;;;6315604;22;20034;-83
2022/04/06 06:03:46;;;;;;;5.50;2.67;;;;;;;;;;6329617;22;19983;-82
2022/04/06 06:06:11;;;;;;;5.53;2.80;;;;;;;;;;6303366;22;20014;-82
2022/04/06 06:08:38;;;;;;;6.13;3.72;;;;;;;;;;6331401;22;20007;-81
2022/04/06 06:11:04;;;;;;;6.10;3.05;;;;;;;;;;6304536;22;20033;-81
2022/04/06 06:13:31;;;;;;;6.95;3.17;;;;;;;;;;6316919;22;20427;-83
2022/04/06 06:15:57;;;;;;;10.52;3.53;;;;;;;;;;6299436;22;20003;-81
2022/04/06 06:18:24;;;;;;;4.85;3.30;;;;;;;;;;6318325;22;19999;-83
2022/04/06 06:20:50;;;;;;;5.53;3.40;;;;;;;;;;6286467;22;20014;-83
2022/04/06 06:23:16;;;;;;;6.18;3.13;;;;;;;;;;6286905;22;20082;-83
2022/04/06 06:25:42;;;;;;;5.15;2.90;;;;;;;;;;6286823;22;20010;-82
2022/04/06 06:28:09;;;;;;;8.68;3.08;;;;;;;;;;6287553;22;19999;-83
2022/04/06 06:30:35;;;;;;;5.10;2.92;;;;;;;;;;6314041;22;20004;-83
2022/04/06 06:33:01;;;;;;;4.72;2.50;;;;;;;;;;6313992;22;20400;-82
2022/04/06 06:35:27;;;;;;;4.20;2.20;;;;;;;;;;6314188;22;20006;-83
2022/04/06 06:37:54;;;;;;;4.45;2.08;;;;;;;;;;6314132;22;20025;-84
2022/04/06 06:40:21;;;;;;;5.55;1.90;;;;;;;;;;6286086;22;19999;-82
2022/04/06 06:42:47;;;;;;;4.38;2.00;;;;;;;;;;6312227;22;20346;-83
2022/04/06 06:45:13;;;;;;;4.43;1.77;;;;;;;;;;6312889;22;20006;-83
2022/04/06 06:47:43;;;;;;;4.38;1.70;;;;;;;;;;6313836;22;20026;-82
2022/04/06 06:50:09;;;;;;;3.65;1.83;;;;;;;;;;6286918;22;20056;-83
2022/04/06 06:52:36;;;;;;;4.07;1.75;;;;;;;;;;6314030;22;20392;-84
2022/04/06 06:55:03;;;;;;;3.75;1.50;;;;;;;;;;6285978;22;20007;-82
2022/04/06 06:57:29;;;;;;;3.95;1.85;;;;;;;;;;6286389;22;20015;-82
2022/04/06 06:59:55;;;;;;;3.28;1.40;;;;;;;;;;6313315;22;20000;-83
2022/04/06 07:02:21;;;;;;;3.95;1.30;;;;;;;;;;6314254;22;20487;-83
2022/04/06 07:04:47;;;;;;;4.20;1.40;;;;;;;;;;6312112;22;20048;-82
2022/04/06 07:07:13;;;;;;;3.72;1.30;;;;;;;;;;6313666;22;19999;-83
2022/04/06 07:09:39;;;;;;;3.40;1.50;;;;;;;;;;6312392;22;19991;-84
2022/04/06 07:12:06;;;;;;;3.50;1.10;;;;;;;;;;6284841;22;20006;-84
2022/04/06 07:14:32;;;;;;;3.63;1.30;;;;;;;;;;6315130;22;20000;-84
2022/04/06 07:16:59;;;;;;;4.55;1.50;;;;;;;;;;6314072;22;19995;-84
2022/04/06 07:19:25;;;;;;;3.45;1.48;;;;;;;;;;6286498;22;20007;-85
2022/04/06 07:21:51;;;;;;;2.63;1.08;;;;;;;;;;6285629;22;20064;-82
2022/04/06 07:24:17;;;;;;;3.55;1.25;;;;;;;;;;6285717;22;20085;-82
2022/04/06 07:26:44;;;;;;;3.40;1.23;;;;;;;;;;6313013;22;19995;-81
2022/04/06 07:29:11;;;;;;;2.88;1.02;;;;;;;;;;6285300;22;20006;-81
2022/04/06 07:31:38;;;;;;;3.08;1.10;;;;;;;;;;6287127;22;20004;-82
2022/04/06 07:34:05;;;;;;;11.88;2.10;;;;;;;;;;6316186;22;19999;-81
2022/04/06 07:36:32;;;;;;;2.75;1.00;;;;;;;;;;6314534;22;20204;-82
2022/04/06 07:38:58;;;;;;;4.07;1.20;;;;;;;;;;6312430;22;20062;-83
2022/04/06 07:41:25;;;;;;;2.60;0.90;;;;;;;;;;6312834;22;19999;-82
2022/04/06 07:43:51;;;;;;;2.00;0.80;;;;;;;;;;6312846;22;19995;-82
2022/04/06 07:46:17;;;;;;;4.32;1.15;;;;;;;;;;6285077;22;20010;-82
2022/04/06 07:48:43;;;;;;;2.47;0.90;;;;;;;;;;6286100;22;20019;-83
2022/04/06 07:51:10;;;;;;;2.67;1.10;;;;;;;;;;6314192;22;20026;-82
2022/04/06 07:53:36;;;;;;;3.03;1.10;;;;;;;;;;6314294;22;20507;-82
2022/04/06 07:56:02;;;;;;;2.75;1.15;;;;;;;;;;6313641;22;20003;-82
2022/04/06 07:58:28;;;;;;;3.35;1.00;;;;;;;;;;6285370;22;20006;-82
2022/04/06 08:00:54;;;;;;;2.58;0.98;;;;;;;;;;6286154;22;20007;-82
2022/04/06 08:03:21;;;;;;;3.15;0.98;;;;;;;;;;6313500;22;20074;-82
2022/04/06 08:05:47;;;;;;;2.33;1.00;;;;;;;;;;6312671;22;20015;-83
2022/04/06 08:08:13;;;;;;;1.90;0.80;;;;;;;;;;6312775;22;19999;-82
2022/04/06 08:10:39;;;;;;;5.05;1.35;;;;;;;;;;6312965;22;20045;-83
2022/04/06 08:13:05;;;;;;;3.05;1.00;;;;;;;;;;6313436;22;20446;-81
2022/04/06 08:15:31;;;;;;;2.40;0.90;;;;;;;;;;6285251;22;19999;-82
2022/04/06 08:17:57;;;;;;;2.88;1.13;;;;;;;;;;6313419;22;20031;-82
2022/04/06 08:20:23;;;;;;;2.65;0.90;;;;;;;;;;6312776;22;20003;-81
2022/04/06 08:22:50;;;;;;;2.28;0.80;;;;;;;;;;6313622;22;20116;-83
2022/04/06 08:25:17;;;;;;;1.70;0.70;;;;;;;;;;6313574;22;20054;-84
2022/04/06 08:27:43;;;;;;;2.13;0.80;;;;;;;;;;6311799;22;19995;-82
2022/04/06 08:30:10;;;;;;;2.97;0.73;;;;;;;;;;6313160;22;20078;-82
2022/04/06 08:32:37;;;;;;;2.58;0.80;;;;;;;;;;6285362;22;20007;-82
2022/04/06 08:35:05;;;;;;;2.35;0.93;;;;;;;;;;6312322;22;20439;-82
2022/04/06 08:37:31;;;;;;;2.00;0.70;;;;;;;;;;6312450;22;20030;-82
2022/04/06 08:39:58;;;;;;;1.65;0.60;;;;;;;;;;6284901;22;20004;-84
2022/04/06 08:42:25;;;;;;;4.22;0.80;;;;;;;;;;6311906;22;20075;-82
2022/04/06 08:44:52;;;;;;;2.00;0.88;;;;;;;;;;6312407;22;20023;-83
2022/04/06 08:47:18;;;;;;;1.75;0.52;;;;;;;;;;6284674;22;19999;-82
2022/04/06 08:49:46;;;;;;;5.82;0.93;;;;;;;;;;6284682;22;20011;-81
2022/04/06 08:52:12;;;;;;;2.90;0.80;;;;;;;;;;6312637;22;20006;-81
2022/04/06 08:54:39;;;;;;;6.30;0.80;;;;;;;;;;6312100;22;20514;-82
2022/04/06 08:57:06;;;;;;;4.63;1.65;;;;;;;;;;6313403;22;20040;-83
2022/04/06 08:59:33;;;;;;;1.88;0.68;;;;;;;;;;6314279;22;20023;-82
2022/04/06 09:01:59;;;;;;;1.48;0.60;;;;;;;;;;6311514;22;20000;-82
2022/04/06 09:04:26;;;;;;;1.92;0.73;;;;;;;;;;6311938;22;20070;-84
2022/04/06 09:06:52;;;;;;;2.45;0.63;;;;;;;;;;6284751;22;20011;-83
2022/04/06 09:09:22;;;;;;;2.00;0.70;;;;;;;;;;6313846;22;19992;-82
2022/04/06 09:11:48;;;;;;;2.08;0.70;;;;;;;;;;6314076;22;20048;-84
2022/04/06 09:14:14;;;;;;;1.80;0.70;;;;;;;;;;6286372;22;20038;-84
2022/04/06 09:16:40;;;;;;;1.80;0.60;;;;;;;;;;6312626;22;20454;-82
2022/04/06 09:19:11;;;;;;;2.33;0.70;;;;;;;;;;6314609;22;20003;-82
2022/04/06 09:21:41;;;;;;;2.10;0.80;;;;;;;;;;6312819;22;20015;-82
2022/04/06 09:24:13;;;;;;;1.77;0.75;;;;;;;;;;6310965;22;20005;-82
2022/04/06 09:26:39;;;;;;;2.50;0.90;;;;;;;;;;6284327;22;19999;-84
2022/04/06 09:29:06;;;;;;;1.63;0.70;;;;;;;;;;6311471;22;19995;-82
2022/04/06 09:31:37;;;;;;;1.95;0.63;;;;;;;;;;6313051;22;20041;-83
2022/04/06 09:34:04;;;;;;;3.03;1.42;;;;;;;;;;6284354;22;20003;-83
2022/04/06 09:36:31;;;;;;;4.00;1.52;;;;;;;;;;6312105;22;19999;-82
2022/04/06 09:38:57;;;;;;;3.25;0.70;;;;;;;;;;6311713;22;20006;-83
2022/04/06 09:41:25;;;;;;;3.55;1.15;;;;;;;;;;6310802;22;20014;-82
2022/04/06 09:43:52;;;;;;;2.17;0.80;;;;;;;;;;6311943;22;19995;-83
2022/04/06 09:49:10;;;;;;;2.20;0.95;;;;;;;;;;6314357;22;20029;-82
2022/04/06 09:51:37;;;;;;;1.85;0.60;;;;;;;;;;6313193;22;20003;-82
2022/04/06 09:54:04;;;;;;;3.45;0.70;;;;;;;;;;6314185;22;20467;-83
2022/04/06 09:56:30;;;;;;;2.85;0.90;;;;;;;;;;6286376;22;20045;-83
2022/04/06 09:58:57;;;;;;;4.63;1.00;;;;;;;;;;6313906;22;19996;-82
2022/04/06 10:01:25;;;;;;;2.92;0.90;;;;;;;;;;6314198;22;19999;-83
2022/04/06 10:03:54;;;;;;;2.30;0.90;;;;;;;;;;6314375;22;20002;-82
2022/04/06 10:06:20;;;;;;;2.50;0.80;;;;;;;;;;6314134;22;19999;-82
2022/04/06 10:08:47;;;;;;;3.00;0.90;;;;;;;;;;6313700;22;19999;-83
2022/04/06 10:11:13;;;;;;;5.97;0.95;;;;;;;;;;6285556;22;20027;-82
2022/04/06 10:13:40;;;;;;;2.55;0.63;;;;;;;;;;6313222;22;20056;-82
2022/04/06 10:16:11;;;;;;;2.40;0.82;;;;;;;;;;6312599;22;20003;-82
2022/04/06 10:18:37;;;;;;;2.00;0.70;;;;;;;;;;6313404;22;20003;-82
2022/04/06 10:21:18;;;;;;;3.55;0.73;;;;;;;;;;6312934;22;20004;-82
2022/04/06 10:23:48;;;;;;;1.90;0.68;;;;;;;;;;6313318;22;20523;-82
2022/04/06 10:26:27;;;;;;;2.58;0.77;;;;;;;;;;6311827;22;19995;-83
2022/04/06 10:28:54;;;;;;;2.05;0.82;;;;;;;;;;6313259;22;20021;-83
2022/04/06 10:31:24;;;;;;;1.73;0.60;;;;;;;;;;6285357;22;20452;-84
2022/04/06 10:33:50;;;;;;;6.75;1.40;;;;;;;;;;6284572;22;20061;-82
2022/04/06 10:36:16;;;;;;;1.27;0.50;;;;;;;;;;6311991;22;20006;-83
2022/04/06 10:39:02;;;;;;;1.35;0.50;;;;;;;;;;6312168;22;20003;-81
2022/04/06 10:41:29;;;;;;;2.60;0.88;;;;;;;;;;6313027;22;20335;-82
2022/04/06 10:43:56;;;;;;;3.55;0.80;;;;;;;;;;6284652;22;20083;-82
2022/04/06 10:46:38;;;;;;;1.85;0.70;;;;;;;;;;6314172;22;19995;-82
2022/04/06 10:49:10;;;;;;;1.23;0.50;;;;;;;;;;6316226;22;20025;-83
2022/04/06 10:51:38;;;;;;;2.63;0.70;;;;;;;;;;6315277;22;20030;-82
2022/04/06 10:54:14;;;;;;;1.42;0.60;;;;;;;;;;6313034;22;19999;-82
2022/04/06 10:56:55;;;;;;;2.60;0.60;;;;;;;;;;6311473;22;20010;-81
2022/04/06 10:59:21;;;;;;;4.90;0.63;;;;;;;;;;6313511;22;20082;-82
2022/04/06 11:01:48;;;;;;;2.33;0.70;;;;;;;;;;6286843;22;20049;-81
2022/04/06 11:04:23;;;;;;;1.17;0.45;;;;;;;;;;6314263;22;20379;-81
2022/04/06 11:06:52;;;;;;;2.05;0.57;;;;;;;;;;6314409;22;20003;-82
2022/04/06 11:12:23;;;;;;;2.50;0.60;;;;;;;;;;6314107;22;20010;-82
2022/04/06 11:14:50;;;;;;;1.70;0.40;;;;;;;;;;6314531;22;20022;-83
2022/04/06 11:17:44;;;;;;;5.18;1.35;;;;;;;;;;6314137;22;20030;-81
2022/04/06 11:20:16;;;;;;;1.70;0.40;;;;;;;;;;6314214;22;20015;-82
2022/04/06 11:22:56;;;;;;;2.00;0.73;;;;;;;;;;6286443;22;20027;-82
2022/04/06 11:25:23;;;;;;;2.03;0.60;;;;;;;;;;6313850;22;19999;-83
2022/04/06 11:27:50;;;;;;;1.13;0.40;;;;;;;;;;6313556;22;19995;-83
2022/04/06 11:30:16;;;;;;;1.95;0.60;;;;;;;;;;6288125;22;20086;-83
2022/04/06 11:32:45;;;;;;;4.78;0.50;;;;;;;;;;6289170;22;20007;-83
2022/04/06 11:35:11;;;;;;;2.15;0.50;;;;;;;;;;6314401;22;19999;-83
2022/04/06 11:37:43;;;;;;;1.67;0.40;;;;;;;;;;6314065;22;20097;-81
2022/04/06 11:40:10;;;;;;;3.37;0.90;;;;;;;;;;6314197;22;20029;-83
2022/04/06 11:42:38;;;;;;;2.20;0.50;;;;;;;;;;6314205;22;20001;-84
2022/04/06 11:45:04;;;;;;;1.23;0.40;;;;;;;;;;6313847;22;20074;-82
2022/04/06 11:47:35;;;;;;;3.75;0.60;;;;;;;;;;6313340;22;20003;-83
2022/04/06 11:50:01;;;;;;;2.70;0.40;;;;;;;;;;6314122;22;20003;-82
2022/04/06 11:52:28;;;;;;;2.95;0.63;;;;;;;;;;6320767;22;20074;-82
2022/04/06 11:54:55;;;;;;;1.58;0.50;;;;;;;;;;6322101;22;19999;-83
2022/04/06 11:57:21;;;;;;;1.63;0.52;;;;;;;;;;6316501;22;20037;-83
2022/04/06 11:59:56;;;;;;;1.83;0.47;;;;;;;;;;6313871;22;20003;-83
2022/04/06 12:02:24;;;;;;;1.45;0.40;;;;;;;;;;6286486;22;20029;-84
2022/04/06 12:05:00;;;;;;;1.23;0.40;;;;;;;;;;6314513;22;20427;-82
2022/04/06 12:07:26;;;;;;;1.08;0.30;;;;;;;;;;6285744;22;20006;-84
2022/04/06 12:09:53;;;;;;;12.40;2.13;;;;;;;;;;6312729;22;20023;-84
2022/04/06 12:12:19;;;;;;;1.02;0.40;;;;;;;;;;6286830;22;20015;-84
2022/04/06 12:14:45;;;;;;;2.22;0.68;;;;;;;;;;6314556;22;20003;-82
2022/04/06 12:17:13;;;;;;;3.28;0.70;;;;;;;;;;6314999;22;19999;-84
2022/04/06 12:19:40;;;;;;;1.67;0.45;;;;;;;;;;6286978;22;20004;-83
2022/04/06 12:22:11;;;;;;;2.75;0.40;;;;;;;;;;6287112;22;20059;-84
2022/04/06 12:24:44;;;;;;;2.55;0.50;;;;;;;;;;6289773;22;20031;-84
2022/04/06 12:27:09;;;;;;;;;;;;;;;;;;6318606;22;20057;-84
2022/04/06 12:29:36;;;;;;;1.67;0.55;;;;;;;;;;6314879;22;19899;-83
2022/04/06 12:32:05;;;;;;;1.27;0.38;;;;;;;;;;6315356;22;20018;-84
2022/04/06 12:34:32;;;;;;;1.58;0.40;;;;;;;;;;6314886;22;20300;-84
2022/04/06 12:36:58;;;;;;;0.80;0.30;;;;;;;;;;6286752;22;20069;-85
2022/04/06 12:39:24;;;;;;;1.17;0.43;;;;;;;;;;6313225;22;19996;-84
2022/04/06 12:41:52;;;;;;;2.00;0.50;;;;;;;;;;6314629;22;20078;-84
2022/04/06 12:44:19;;;;;;;2.47;0.80;;;;;;;;;;6313783;22;19996;-84
2022/04/06 12:46:46;;;;;;;4.15;0.80;;;;;;;;;;6313353;22;20435;-83
2022/04/06 12:49:22;;;;;;;2.58;0.68;;;;;;;;;;6286852;22;19995;-84
2022/04/06 12:52:02;;;;;;;1.98;0.60;;;;;;;;;;6313868;22;20000;-84
2022/04/06 12:54:31;;;;;;;2.50;0.90;;;;;;;;;;6314149;22;20373;-84
2022/04/06 12:57:06;;;;;;;4.28;1.00;;;;;;;;;;6314856;22;20003;-84
2022/04/06 12:59:37;;;;;;;3.65;1.00;;;;;;;;;;6287568;22;20007;-85
2022/04/06 13:02:04;;;;;;;2.10;0.70;;;;;;;;;;6314564;22;20057;-84
2022/04/06 13:04:30;;;;;;;3.58;1.17;;;;;;;;;;6314301;22;20008;-85
2022/04/06 13:06:56;;;;;;;2.90;1.10;;;;;;;;;;6287095;22;19999;-83
2022/04/06 13:09:22;;;;;;;2.20;0.95;;;;;;;;;;6313066;22;19996;-84
2022/04/06 13:11:48;;;;;;;3.85;1.65;;;;;;;;;;6313909;22;20003;-84
2022/04/06 13:14:14;;;;;;;2.42;1.00;;;;;;;;;;6313120;22;20036;-84
2022/04/06 13:16:41;;;;;;;2.78;1.25;;;;;;;;;;6285446;22;19999;-84
2022/04/06 13:19:07;;;;;;;3.00;1.30;;;;;;;;;;6313705;22;20003;-84
2022/04/06 13:21:36;;;;;;;3.92;1.60;;;;;;;;;;6316078;22;20011;-83
2022/04/06 13:24:03;;;;;;;4.57;2.30;;;;;;;;;;6324634;22;19999;-85
2022/04/06 13:26:29;;;;;;;4.28;2.38;;;;;;;;;;6325822;22;19999;-82
2022/04/06 13:28:55;;;;;;;5.45;3.03;;;;;;;;;;6296684;22;19999;-85
2022/04/06 13:31:21;;;;;;;6.75;4.30;;;;;;;;;;6316673;22;20037;-82
2022/04/06 13:33:48;;;;;;;6.05;4.20;;;;;;;;;;6313772;22;20007;-84
2022/04/06 13:36:14;;;;;;;6.55;3.90;;;;;;;;;;6286903;22;20501;-85
2022/04/06 13:38:40;;;;;;;7.60;3.92;;;;;;;;;;6313822;22;19995;-84
2022/04/06 13:41:06;;;;;;;6.05;3.83;;;;;;;;;;6285804;22;20010;-83
2022/04/06 13:43:32;;;;;;;5.55;3.28;;;;;;;;;;6313204;22;20002;-85
2022/04/06 13:45:58;;;;;;;5.32;3.05;;;;;;;;;;6313378;22;20007;-84
2022/04/06 13:48:24;;;;;;;5.25;3.45;;;;;;;;;;6312795;22;19999;-85
2022/04/06 13:50:51;;;;;;;5.07;3.20;;;;;;;;;;6285003;22;19999;-83
2022/04/06 13:53:17;;;;;;;6.95;3.67;;;;;;;;;;6312714;22;19999;-84
2022/04/06 13:55:43;;;;;;;5.85;3.13;;;;;;;;;;6312159;22;20182;-84
2022/04/06 13:58:11;;;;;;;6.32;3.28;;;;;;;;;;6314801;22;20035;-83
2022/04/06 14:00:37;;;;;;;7.90;4.90;;;;;;;;;;6322038;22;20003;-83
2022/04/06 14:03:03;;;;;;;7.90;4.55;;;;;;;;;;6320722;22;20042;-84
2022/04/06 14:05:31;;;;;;;7.47;5.40;;;;;;;;;;6321036;22;20008;-86
2022/04/06 14:07:58;;;;;;;5.78;3.95;;;;;;;;;;6322417;22;19995;-82
2022/04/06 14:10:24;;;;;;;6.00;3.90;;;;;;;;;;6315023;22;20003;-84
2022/04/06 14:12:52;;;;;;;6.72;3.70;;;;;;;;;;6287289;22;20010;-84
2022/04/06 14:15:18;;;;;;;6.18;4.18;;;;;;;;;;6286143;22;20003;-84
2022/04/06 14:17:45;;;;;;;6.20;4.47;;;;;;;;;;6287255;22;20003;-85
2022/04/06 14:20:12;;;;;;;7.32;5.60;;;;;;;;;;6313623;22;20062;-82
2022/04/06 14:22:38;;;;;;;6.65;5.13;;;;;;;;;;6314818;22;19995;-84
2022/04/06 14:25:18;;;;;;;7.35;4.40;;;;;;;;;;6286173;22;20063;-82
2022/04/06 14:27:44;;;;;;;7.47;5.30;;;;;;;;;;6312979;22;19996;-85
2022/04/06 14:30:11;;;;;;;7.10;4.82;;;;;;;;;;6285791;22;20011;-85
2022/04/06 14:32:37;;;;;;;7.28;4.85;;;;;;;;;;6285058;22;20007;-84
2022/04/06 14:35:03;;;;;;;6.93;5.13;;;;;;;;;;6287477;22;20003;-83
2022/04/06 14:37:29;;;;;;;10.02;5.40;;;;;;;;;;6314376;22;19999;-83
2022/04/06 14:39:55;;;;;;;7.93;5.70;;;;;;;;;;6315873;22;19999;-83
2022/04/06 14:42:21;;;;;;;8.60;4.85;;;;;;;;;;6315020;22;19999;-84
2022/04/06 14:44:47;;;;;;;8.02;5.30;;;;;;;;;;6315421;22;20006;-84
2022/04/06 14:47:13;;;;;;;7.05;5.15;;;;;;;;;;6286207;22;20370;-84
2022/04/06 14:49:39;;;;;;;6.30;4.63;;;;;;;;;;6287131;22;19999;-84
2022/04/06 14:52:05;;;;;;;7.25;4.85;;;;;;;;;;6314556;22;20011;-83
2022/04/06 14:54:31;;;;;;;6.20;4.38;;;;;;;;;;6314332;22;20037;-84